Viejas (78, 358, 1458) Station Data

Red Flag Warning: No
Fire Weather Zone: 250
SDGE Region: Mountain Empire
Lat/Lon: 32.846/-116.704

Observations

Time Wind Speed/Gust Temp(F) RH Fuel Moist Fuel Temp(F) Dewpt(F) Tmax(F) Tmin(F) Accum Precip 10-min Precip SL Press(mb)
5/28 5:00am 57 4 G 5 42° 81% - - 36° 48.7° 40.5° - - 1019.0
5/28 4:50am 61 4 G 5 42° 82% - - 37° 48.7° 40.5° - - 1019.0
5/28 4:40am 43 3 G 4 41° 81% - - 36° 48.7° 40.5° - - 1019.0
5/28 4:30am 64 3 G 5 42° 79% - - 36° 48.7° 41.2° - - 1019.0
5/28 4:20am 49 2 G 5 42° 76% - - 35° 48.7° 42° - - 1019.0
5/28 4:10am 56 1 G 3 46° 69% - - 36° 48.7° 42.3° - - 1018.0
5/28 4:00am 24 3 G 4 47° 71% - - 38° 48.7° 42.3° - - 1018.0
5/28 3:50am 24 2 G 4 45° 78% - - 38° 48.7° 42.3° - - 1018.0
5/28 3:40am 32 1 G 3 45° 78% - - 38° 48.7° 42.3° - - 1018.0
5/28 3:30am 34 2 G 4 45° 80% - - 39° 48.7° 42.3° - - 1019.0
5/28 3:20am 51 3 G 4 44° 80% - - 38° 48.7° 42.3° - - 1019.0
5/28 3:10am 46 3 G 4 43° 81% - - 38° 48.7° 42.3° - - 1019.0
5/28 3:00am 54 3 G 5 44° 78% - - 38° 48.7° 42.7° - - 1019.0
5/28 2:50am 37 2 G 3 45° 79% - - 39° 48.7° 43.2° - - 1019.0
5/28 2:40am 52 2 G 4 45° 80% - - 39° 48.7° 43.2° - - 1019.0
5/28 2:30am 43 0 G 2 44° 79% - - 38° 48.7° 43.2° - - 1019.0
5/28 2:20am 63 2 G 3 45° 81% - - 39° 48.7° 43.2° - - 1019.0
5/28 2:10am 360 1 G 3 44° 79% - - 38° 48.7° 43.2° - - 1019.0
5/28 2:00am 62 3 G 4 45° 76% - - 38° 48.7° 44.2° - - 1019.0
5/28 1:50am 50 1 G 3 48° 74% - - 40° 48.7° 44.8° - - 1019.0
5/28 1:40am 10 1 G 3 46° 79% - - 40° 48.7° 44.8° - - 1019.0
5/28 1:30am 51 1 G 3 47° 77% - - 40° 48.7° 44.8° - - 1019.0
5/28 1:20am 33 3 G 5 48° 81% - - 42° 48.7° 44.8° - - 1019.0
5/28 1:10am 29 3 G 4 46° 83% - - 42° 48.7° 44.8° - - 1019.0
5/28 1:00am 45 3 G 5 45° 83% - - 40° 48.7° 44.8° - - 1019.0
5/28 12:50am 53 3 G 5 46° 83% - - 41° 48.7° 45.6° - - 1019.0
5/28 12:40am 53 3 G 5 46° 81% - - 41° 48.7° 45.7° - - 1019.0
5/28 12:30am 31 1 G 3 48° 82% - - 43° 48.7° 46.9° - - 1019.0
5/28 12:20am 17 1 G 2 48° 83% - - 43° 48.7° 48° - - 1019.0
5/28 12:10am 20 2 G 4 48° 84% - - 44° 48.7° 48° - - 1019.0
5/28 12:00am 10 1 G 3 47° 83% - - 43° 72.1° 46.8° - - 1019.0
5/27 11:50pm 51 1 G 3 48° 82% - - 43° 72.1° 46.8° - - 1019.0
5/27 11:40pm 80 2 G 4 48° 81% - - 43° 72.1° 46.9° - - 1019.0
5/27 11:30pm 56 2 G 4 50° 81% - - 44° 72.1° 46.9° - - 1019.0
5/27 11:20pm 26 3 G 5 49° 84% - - 45° 72.1° 46.9° - - 1019.0
5/27 11:10pm 18 2 G 4 48° 84% - - 43° 72.1° 46.9° - - 1019.0
5/27 11:00pm 63 5 G 5 48° 81% - - 43° 72.1° 46.9° - - 1019.0
5/27 10:50pm 49 4 G 5 49° 83% - - 44° 72.1° 47.2° - - 1019.0
5/27 10:40pm 59 3 G 5 48° 80% - - 42° 72.1° 47.2° - - 1019.0
5/27 10:30pm 48 1 G 3 50° 79% - - 44° 72.1° 47.6° - - 1019.0
5/27 10:20pm 23 3 G 4 51° 80% - - 45° 72.1° 47.6° - - 1019.0
5/27 10:10pm 23 2 G 4 50° 80% - - 44° 72.1° 47.6° - - 1019.0
5/27 10:00pm 46 3 G 4 50° 78% - - 44° 72.1° 47.6° - - 1019.0
5/27 9:50pm 48 0 G 2 52° 76% - - 44° 72.1° 47.6° - - 1018.0
5/27 9:40pm 339 0 G 2 52° 77% - - 45° 72.1° 47.6° - - 1018.0
5/27 9:30pm 30 2 G 3 52° 75% - - 44° 72.1° 47.6° - - 1018.0
5/27 9:20pm 10 1 G 2 54° 74% - - 46° 72.1° 47.6° - - 1018.0
5/27 9:10pm 309 1 G 1 54° 74% - - 46° 72.1° 47.6° - - 1018.0
5/27 9:00pm 347 0 G 2 55° 73% - - 46° 72.1° 47.6° - - 1018.0
5/27 8:50pm 326 1 G 2 55° 72% - - 46° 72.1° 47.6° - - 1018.0
5/27 8:40pm 278 1 G 3 55° 72% - - 47° 72.1° 47.6° - - 1018.0
5/27 8:30pm 217 3 G 5 56° 71% - - 47° 72.1° 47.6° - - 1018.0
5/27 8:20pm 211 3 G 6 56° 70% - - 47° 72.1° 47.6° - - 1017.0
5/27 8:10pm 205 5 G 7 57° 68% - - 47° 72.1° 47.6° - - 1017.0
5/27 8:00pm 213 4 G 7 58° 68% - - 47° 72.1° 47.6° - - 1017.0
5/27 7:50pm 212 4 G 7 59° 66% - - 47° 72.1° 47.6° - - 1017.0
5/27 7:40pm 212 5 G 7 59° 65% - - 47° 72.1° 47.6° - - 1017.0
5/27 7:30pm 214 4 G 7 60° 63% - - 47° 72.1° 47.6° - - 1017.0
5/27 7:20pm 218 6 G 10 60° 62% - - 47° 72.1° 47.6° - - 1017.0
5/27 7:10pm 213 7 G 10 61° 61% - - 47° 72.1° 47.6° - - 1017.0
5/27 7:00pm 214 7 G 11 62° 59% - - 47° 72.1° 47.6° - - 1017.0
5/27 6:50pm 210 7 G 11 63° 57% - - 47° 72.1° 47.6° - - 1016.0
5/27 6:40pm 211 7 G 11 64° 55% - - 47° 72.1° 47.6° - - 1016.0
5/27 6:30pm 212 8 G 12 64° 55% - - 47° 72.1° 47.6° - - 1016.0
5/27 6:20pm 215 8 G 13 64° 55% - - 47° 72.1° 47.6° - - 1016.0
5/27 6:10pm 216 10 G 15 64° 54% - - 47° 72.1° 47.6° - - 1016.0
5/27 6:00pm 210 10 G 15 65° 53% - - 48° 72.1° 47.6° - - 1016.0
5/27 5:50pm 212 10 G 14 66° 52% - - 48° 72.1° 47.6° - - 1016.0
5/27 5:40pm 215 10 G 14 66° 52% - - 48° 72.1° 47.6° - - 1016.0
5/27 5:30pm 214 9 G 15 66° 51% - - 48° 72.1° 47.6° - - 1016.0
5/27 5:20pm 216 10 G 15 67° 51% - - 48° 72.1° 47.6° - - 1016.0
5/27 5:10pm 215 10 G 15 67° 50% - - 48° 72.1° 47.6° - - 1016.0
5/27 5:00pm 217 9 G 15 67° 50% - - 48° 72.1° 47.6° - - 1016.0
5/27 4:50pm 224 9 G 15 68° 49% - - 48° 72.1° 47.6° - - 1016.0
5/27 4:40pm 215 9 G 16 68° 49% - - 48° 72.1° 47.6° - - 1016.0
5/27 4:30pm 224 10 G 15 68° 49% - - 48° 72.1° 47.6° - - 1016.0
5/27 4:20pm 223 10 G 16 68° 49% - - 48° 72.1° 47.6° - - 1016.0
5/27 4:10pm 223 11 G 18 68° 49% - - 48° 72.1° 47.6° - - 1016.0
5/27 4:00pm 227 12 G 18 68° 48% - - 48° 72.1° 47.6° - - 1016.0
5/27 3:50pm 227 11 G 17 69° 47% - - 48° 72.1° 47.6° - - 1016.0
5/27 3:40pm 222 10 G 14 69° 46% - - 48° 72.1° 47.6° - - 1016.0
5/27 3:30pm 220 10 G 15 69° 46% - - 48° 72.1° 47.6° - - 1016.0
5/27 3:20pm 224 10 G 17 70° 44% - - 47° 72.1° 47.6° - - 1016.0
5/27 3:10pm 230 9 G 16 70° 43% - - 47° 72.1° 47.6° - - 1016.0
5/27 3:00pm 224 10 G 17 70° 43% - - 47° 72.1° 47.6° - - 1016.0
5/27 2:50pm 236 9 G 16 71° 41% - - 46° 72.1° 47.6° - - 1015.0
5/27 2:40pm 236 9 G 18 71° 40% - - 46° 72.1° 47.6° - - 1015.0
5/27 2:30pm 233 10 G 15 70° 41% - - 46° 72.1° 47.6° - - 1016.0
5/27 2:20pm 234 10 G 17 70° 41% - - 46° 72.1° 47.6° - - 1016.0
5/27 2:10pm 233 9 G 20 71° 40% - - 46° 72.1° 47.6° - - 1015.0
5/27 2:00pm 241 8 G 13 71° 40% - - 45° 71.8° 47.6° - - 1016.0
5/27 1:50pm 236 7 G 14 71° 41% - - 46° 71.8° 47.6° - - 1016.0
5/27 1:40pm 233 8 G 13 70° 42% - - 45° 70.4° 47.6° - - 1016.0
5/27 1:30pm 235 7 G 12 70° 42% - - 46° 70.4° 47.6° - - 1016.0
5/27 1:20pm 226 7 G 11 70° 43% - - 46° 70.4° 47.6° - - 1016.0
5/27 1:10pm 244 6 G 12 69° 43% - - 46° 70.2° 47.6° - - 1016.0
5/27 1:00pm 220 5 G 11 69° 44% - - 46° 70.2° 47.6° - - 1016.0
5/27 12:50pm 216 7 G 11 68° 45% - - 46° 69° 47.6° - - 1016.0
5/27 12:40pm 232 7 G 12 68° 46% - - 46° 68.6° 47.6° - - 1017.0
5/27 12:30pm 232 6 G 12 67° 46% - - 46° 68.4° 47.6° - - 1017.0
5/27 12:20pm 232 7 G 10 67° 47% - - 46° 67.8° 47.6° - - 1017.0
5/27 12:10pm 234 8 G 12 67° 47% - - 46° 67.8° 47.6° - - 1017.0
5/27 12:00pm 228 6 G 12 67° 46% - - 46° 67.8° 47.6° - - 1017.0
5/27 11:50am 173 3 G 7 66° 46% - - 45° 67° 47.6° - - 1017.0
5/27 11:40am 257 4 G 10 65° 49% - - 45° 66.1° 47.6° - - 1017.0
5/27 11:30am 200 4 G 10 64° 51% - - 46° 65.2° 47.6° - - 1017.0
5/27 11:20am 208 5 G 9 63° 52% - - 45° 64.2° 47.6° - - 1017.0
5/27 11:10am 209 6 G 11 63° 53% - - 46° 64.2° 47.6° - - 1017.0
5/27 11:00am 228 7 G 14 63° 55% - - 46° 63.3° 47.6° - - 1017.0
5/27 10:50am 233 6 G 12 62° 56% - - 46° 63.1° 47.6° - - 1018.0
5/27 10:40am 218 7 G 12 62° 57% - - 46° 62.4° 47.6° - - 1017.0
5/27 10:30am 230 7 G 11 61° 58% - - 46° 61.8° 47.6° - - 1017.0
5/27 10:20am 219 7 G 12 61° 58% - - 46° 61.8° 47.6° - - 1017.0
5/27 10:10am 219 7 G 11 60° 59% - - 46° 61.3° 47.6° - - 1018.0
5/27 10:00am 210 6 G 10 60° 60% - - 46° 61.3° 47.6° - - 1018.0
5/27 9:50am 226 5 G 9 60° 58% - - 45° 61.3° 47.6° - - 1018.0
5/27 9:40am 193 3 G 7 60° 59% - - 46° 61.3° 47.6° - - 1017.0
5/27 9:30am 211 5 G 8 59° 61% - - 45° 59.6° 47.6° - - 1018.0
5/27 9:20am 208 4 G 8 59° 61% - - 45° 59.4° 47.6° - - 1018.0
5/27 9:10am 209 4 G 8 58° 61% - - 45° 58.9° 47.6° - - 1018.0
5/27 9:00am 230 3 G 8 58° 62% - - 45° 58.9° 47.6° - - 1018.0
5/27 8:50am 189 2 G 8 58° 63% - - 45° 58.9° 47.6° - - 1018.0
5/27 8:40am 204 4 G 9 57° 64% - - 45° 57.9° 47.6° - - 1018.0
5/27 8:30am 180 3 G 7 57° 64% - - 45° 57.6° 47.6° - - 1018.0
5/27 8:20am 189 2 G 6 57° 65% - - 45° 57.5° 47.6° - - 1018.0
5/27 8:10am 179 2 G 5 57° 65% - - 45° 57.5° 47.6° - - 1018.0
5/27 8:00am 79 3 G 5 56° 67% - - 45° 56.3° 47.6° - - 1018.0
5/27 7:50am 69 2 G 4 55° 68% - - 45° 56.3° 47.6° - - 1018.0
5/27 7:40am 83 3 G 5 55° 67% - - 45° 56.3° 47.6° - - 1018.0
5/27 7:30am 110 2 G 5 55° 69% - - 45° 56° 47.6° - - 1018.0
5/27 7:20am 92 1 G 3 54° 72% - - 45° 54.8° 47.6° - - 1018.0
5/27 7:10am 97 2 G 5 53° 74% - - 45° 54° 47.6° - - 1018.0
5/27 7:00am 62 3 G 4 51° 75% - - 43° 54° 47.6° - - 1018.0
5/27 6:50am 64 2 G 3 50° 76% - - 43° 54° 47.6° - - 1018.0
5/27 6:40am 49 3 G 4 50° 76% - - 43° 54° 47.6° - - 1018.0
5/27 6:30am 50 2 G 3 50° 75% - - 43° 54° 47.6° - - 1018.0
5/27 6:20am 25 1 G 3 49° 79% - - 43° 54° 47.6° - - 1018.0
5/27 6:10am 23 2 G 3 48° 80% - - 42° 54° 47.6° - - 1018.0
5/27 6:00am 21 2 G 4 48° 80% - - 42° 54° 47.6° - - 1018.0
5/27 5:50am 29 2 G 3 48° 80% - - 42° 54° 47.6° - - 1018.0
5/27 5:40am 350 1 G 2 48° 80% - - 42° 54° 47.6° - - 1018.0
5/27 5:30am 24 1 G 3 48° 79% - - 42° 54° 47.7° - - 1018.0
5/27 5:20am 59 4 G 5 49° 79% - - 42° 54° 48.1° - - 1018.0
5/27 5:10am 48 2 G 4 49° 80% - - 43° 54° 48.1° - - 1018.0
5/27 5:00am 30 0 G 2 48° 80% - - 43° 54° 48.1° - - 1018.0
5/27 4:50am 30 1 G 2 48° 80% - - 42° 54° 48.1° - - 1018.0
5/27 4:40am 32 1 G 2 48° 80% - - 42° 54° 48.1° - - 1018.0
5/27 4:30am 34 2 G 3 49° 78% - - 42° 54° 48.3° - - 1018.0
5/27 4:20am 75 2 G 3 50° 78% - - 43° 54° 49.2° - - 1017.0
5/27 4:10am 74 4 G 5 51° 76% - - 43° 54° 49.7° - - 1017.0
5/27 4:00am 35 2 G 5 52° 75% - - 45° 54° 51.8° - - 1017.0
5/27 3:50am 360 1 G 5 53° 75% - - 45° 54° 52.4° - - 1017.0
5/27 3:40am 42 2 G 5 53° 75% - - 45° 54° 52.5° - - 1017.0
5/27 3:30am 39 1 G 4 53° 75% - - 45° 54° 52.7° - - 1017.0
5/27 3:20am 343 1 G 5 53° 74% - - 45° 54° 52.8° - - 1017.0
5/27 3:10am 350 1 G 3 53° 74% - - 45° 54° 52.9° - - 1017.0
5/27 3:00am 12 2 G 5 54° 74% - - 45° 54° 53.1° - - 1017.0
5/27 2:50am 18 1 G 4 54° 74% - - 46° 54° 53.1° - - 1017.0
5/27 2:40am 1 1 G 3 54° 75% - - 46° 54° 53.1° - - 1017.0
5/27 2:30am 270 1 G 2 53° 77% - - 46° 54° 53.1° - - 1017.0
5/27 2:20am 246 1 G 2 53° 77% - - 46° 54° 53.2° - - 1017.0
5/27 2:10am 234 2 G 3 53° 77% - - 46° 54° 53.2° - - 1017.0
5/27 2:00am 215 2 G 3 53° 77% - - 46° 54° 53.2° - - 1018.0
5/27 1:50am 204 3 G 4 53° 77% - - 46° 54° 53.2° - - 1018.0
5/27 1:40am 224 3 G 4 54° 76% - - 46° 54° 53.4° - - 1018.0
5/27 1:30am 222 2 G 3 54° 75% - - 46° 54° 53.4° - - 1018.0
5/27 1:20am 247 2 G 4 54° 75% - - 46° 54° 53.4° - - 1018.0
5/27 1:10am 219 2 G 4 54° 75% - - 46° 54° 53.4° - - 1018.0
5/27 1:00am 222 2 G 5 54° 75% - - 46° 54° 53.4° - - 1018.0
5/27 12:50am 209 3 G 5 54° 75% - - 46° 54° 53.4° - - 1018.0
5/27 12:40am 216 4 G 6 54° 75% - - 46° 54° 53.5° - - 1018.0
5/27 12:30am 223 4 G 7 54° 75% - - 46° 54° 53.5° - - 1018.0
5/27 12:20am 203 3 G 5 54° 76% - - 46° 54° 53.5° - - 1018.0
5/27 12:10am 225 4 G 6 54° 76% - - 46° 54° 53.6° - - 1018.0
5/27 12:00am 227 4 G 6 54° 76% - - 46° 66.1° 50.4° - - 1018.0
5/26 11:50pm 228 4 G 5 54° 76% - - 46° 66.1° 50.4° - - 1018.0
5/26 11:40pm 217 3 G 5 54° 76% - - 46° 66.1° 50.4° - - 1018.0
5/26 11:30pm 217 4 G 5 54° 76% - - 46° 66.1° 50.4° - - 1018.0
5/26 11:20pm 223 4 G 5 54° 76% - - 46° 66.1° 50.4° - - 1018.0
5/26 11:10pm 226 4 G 6 54° 75% - - 46° 66.1° 50.4° - - 1018.0
5/26 11:00pm 213 4 G 6 54° 75% - - 46° 66.1° 50.4° - - 1018.0
5/26 10:50pm 146 3 G 7 54° 75% - - 47° 66.1° 50.4° - - 1018.0
5/26 10:40pm 202 3 G 5 54° 75% - - 47° 66.1° 50.4° - - 1018.0
5/26 10:30pm 224 3 G 5 54° 75% - - 47° 66.1° 50.4° - - 1018.0
5/26 10:20pm 204 3 G 5 55° 75% - - 47° 66.1° 50.4° - - 1017.0
5/26 10:10pm 213 3 G 5 55° 75% - - 47° 66.1° 50.4° - - 1017.0
5/26 10:00pm 227 3 G 5 55° 75% - - 47° 66.1° 50.4° - - 1017.0
5/26 9:50pm 211 4 G 5 55° 75% - - 47° 66.1° 50.4° - - 1017.0
5/26 9:40pm 203 4 G 5 55° 75% - - 47° 66.1° 50.4° - - 1017.0
5/26 9:30pm 217 4 G 7 55° 75% - - 47° 66.1° 50.4° - - 1017.0
5/26 9:20pm 217 5 G 8 55° 74% - - 47° 66.1° 50.4° - - 1017.0
5/26 9:10pm 189 2 G 7 55° 73% - - 47° 66.1° 50.4° - - 1017.0
5/26 9:00pm 220 2 G 4 55° 73% - - 47° 66.1° 50.4° - - 1017.0
5/26 8:50pm 214 6 G 9 55° 74% - - 47° 66.1° 50.4° - - 1017.0
5/26 8:40pm 235 2 G 7 55° 74% - - 47° 66.1° 50.4° - - 1017.0
5/26 8:30pm 257 2 G 4 55° 73% - - 47° 66.1° 50.4° - - 1017.0
5/26 8:20pm 239 4 G 7 55° 73% - - 47° 66.1° 50.4° - - 1016.0
5/26 8:10pm 229 6 G 11 55° 73% - - 47° 66.1° 50.4° - - 1016.0
5/26 8:00pm 237 8 G 11 56° 72% - - 47° 66.1° 50.4° - - 1016.0
5/26 7:50pm 239 7 G 13 56° 71% - - 47° 66.1° 50.4° - - 1016.0
5/26 7:40pm 212 8 G 13 56° 71% - - 47° 66.1° 50.4° - - 1016.0
5/26 7:30pm 217 7 G 11 56° 70% - - 47° 66.1° 50.4° - - 1016.0
5/26 7:20pm 221 9 G 14 57° 68% - - 47° 66.1° 50.4° - - 1016.0
5/26 7:10pm 231 9 G 16 57° 66% - - 46° 66.1° 50.4° - - 1016.0
5/26 7:00pm 241 11 G 16 58° 63% - - 45° 66.1° 50.4° - - 1016.0
5/26 6:50pm 235 10 G 14 59° 59% - - 45° 66.1° 50.4° - - 1015.0
5/26 6:40pm 239 10 G 14 60° 57% - - 45° 66.1° 50.4° - - 1015.0
5/26 6:30pm 238 9 G 15 60° 56% - - 45° 66.1° 50.4° - - 1015.0
5/26 6:20pm 240 10 G 15 61° 55% - - 45° 66.1° 50.4° - - 1015.0
5/26 6:10pm 243 9 G 15 62° 54% - - 45° 66.1° 50.4° - - 1015.0
5/26 6:00pm 243 10 G 16 62° 53% - - 45° 66.1° 50.4° - - 1015.0